createdAt,value
2022-11-16T00:00:23.780Z,94494.53
2022-11-16T00:01:27.452Z,94484.69
2022-11-16T00:02:29.084Z,94481.88
2022-11-16T00:03:32.018Z,94478.34
2022-11-16T00:04:33.614Z,94490.47
2022-11-16T00:05:35.135Z,94485.97
2022-11-16T00:06:36.681Z,94478.91
2022-11-16T00:07:38.363Z,94478.91
2022-11-16T00:08:42.885Z,94485.97
2022-11-16T00:09:44.402Z,94483.38
2022-11-16T00:10:45.902Z,94484.91
2022-11-16T00:11:51.155Z,94481.16
2022-11-16T00:12:52.705Z,94477.81
2022-11-16T00:13:54.213Z,94480.41
2022-11-16T00:14:55.794Z,94482.84
2022-11-16T00:15:58.219Z,94481.34
2022-11-16T00:17:00.813Z,94478.00
2022-11-16T00:18:02.311Z,94476.72
2022-11-16T00:19:05.511Z,94475.22
2022-11-16T00:20:07.939Z,94473.75
2022-11-16T00:21:10.203Z,94477.81
2022-11-16T00:22:11.766Z,94470.38
2022-11-16T00:23:13.297Z,94480.81
2022-11-16T00:24:16.625Z,94478.19
2022-11-16T00:25:18.197Z,94478.19
2022-11-16T00:26:20.691Z,94480.81
2022-11-16T00:27:22.222Z,94473.75
2022-11-16T00:28:23.746Z,94473.75
2022-11-16T00:29:26.471Z,94466.66
2022-11-16T00:30:28.081Z,94469.44
2022-11-16T00:31:29.593Z,94477.81
2022-11-16T00:32:31.481Z,94472.22
2022-11-16T00:33:34.143Z,94469.44
2022-11-16T00:34:35.682Z,94466.66
2022-11-16T00:35:40.792Z,94472.78
2022-11-16T00:36:43.086Z,94472.22
2022-11-16T00:37:44.590Z,94477.81
2022-11-16T00:38:46.322Z,94466.66
2022-11-16T00:39:47.878Z,94477.81
2022-11-16T00:40:50.093Z,94465.16
2022-11-16T00:41:51.728Z,94460.88
2022-11-16T00:42:53.257Z,94473.75
2022-11-16T00:43:54.838Z,94463.66
2022-11-16T00:44:56.341Z,94464.41
2022-11-16T00:45:57.982Z,94471.69
2022-11-16T00:46:59.517Z,94469.44
2022-11-16T00:48:01.110Z,94464.41
2022-11-16T00:49:03.142Z,94470.00
2022-11-16T00:50:05.955Z,94466.66
2022-11-16T00:51:07.540Z,94463.66
2022-11-16T00:52:09.100Z,94459.56
2022-11-16T00:53:13.309Z,94455.31
2022-11-16T00:54:14.850Z,94446.94
2022-11-16T00:55:16.454Z,94449.16
2022-11-16T00:56:17.958Z,94465.16
2022-11-16T00:57:19.512Z,94462.38
2022-11-16T00:58:21.477Z,94454.00
2022-11-16T00:59:23.008Z,94444.31
2022-11-16T01:00:24.530Z,94445.06
2022-11-16T01:01:26.274Z,94449.91
2022-11-16T01:02:28.021Z,94441.53
2022-11-16T01:03:29.543Z,94431.69
2022-11-16T01:04:31.085Z,94442.84
2022-11-16T01:05:32.681Z,94442.09
2022-11-16T01:06:34.235Z,94438.75
2022-11-16T01:07:37.494Z,94437.25
2022-11-16T01:08:40.170Z,94430.94
2022-11-16T01:09:41.705Z,94431.69
2022-11-16T01:10:43.376Z,94433.16
2022-11-16T01:12:03.566Z,94430.19
2022-11-16T01:13:05.267Z,94426.09
2022-11-16T01:14:09.493Z,94416.44
2022-11-16T01:15:11.283Z,94421.28
2022-11-16T01:16:20.581Z,94415.50
2022-11-16T01:17:22.206Z,94410.84
2022-11-16T01:18:23.802Z,94420.53
2022-11-16T01:19:25.405Z,94422.38
2022-11-16T01:20:29.293Z,94418.31
2022-11-16T01:21:30.853Z,94415.69
2022-11-16T01:22:35.153Z,94415.69
2022-11-16T01:23:36.720Z,94409.94
2022-11-16T01:24:38.317Z,94416.25
2022-11-16T01:25:39.864Z,94414.78
2022-11-16T01:26:41.393Z,94424.63
2022-11-16T01:27:43.473Z,94417.56
2022-11-16T01:28:45.228Z,94419.97
2022-11-16T01:29:46.807Z,94429.09
2022-11-16T01:30:48.880Z,94422.00
2022-11-16T01:31:50.472Z,94426.84
2022-11-16T01:32:52.011Z,94424.81
2022-11-16T01:33:54.808Z,94417.19
2022-11-16T01:34:56.373Z,94417.75
2022-11-16T01:35:57.910Z,94417.75
2022-11-16T01:36:59.399Z,94417.56
2022-11-16T01:38:00.978Z,94417.56
2022-11-16T01:39:04.551Z,94420.53
2022-11-16T01:40:06.966Z,94422.22
2022-11-16T01:41:13.620Z,94416.44
2022-11-16T01:42:20.142Z,94422.56
2022-11-16T01:43:27.079Z,94419.03
2022-11-16T01:44:31.649Z,94414.78
2022-11-16T01:45:44.114Z,94416.03
2022-11-16T01:46:45.641Z,94417.56
2022-11-16T01:47:47.477Z,94415.69
2022-11-16T01:48:54.013Z,94412.72
2022-11-16T01:50:03.172Z,94411.03
2022-11-16T01:51:04.794Z,94413.47
2022-11-16T01:52:11.695Z,94411.97
2022-11-16T01:53:13.722Z,94409.38
2022-11-16T01:54:15.944Z,94413.47
2022-11-16T01:55:17.860Z,94411.97
2022-11-16T01:56:20.961Z,94402.84
2022-11-16T01:57:27.905Z,94402.31
2022-11-16T01:58:29.607Z,94411.22
2022-11-16T01:59:31.930Z,94403.63
2022-11-16T02:00:33.998Z,94405.63
2022-11-16T02:01:35.523Z,94404.88
2022-11-16T02:02:37.289Z,94399.88
2022-11-16T02:03:38.914Z,94397.63
2022-11-16T02:04:40.509Z,94398.91
2022-11-16T02:06:15.733Z,94400.78
2022-11-16T02:07:20.177Z,94398.53
2022-11-16T02:08:43.034Z,94387.75
2022-11-16T02:10:04.123Z,94384.97
2022-11-16T02:11:28.467Z,94382.00
2022-11-16T02:12:44.928Z,94375.69
2022-11-16T02:14:05.001Z,94381.44
2022-11-16T02:15:23.285Z,94380.28
2022-11-16T02:16:30.832Z,94375.13
2022-11-16T02:17:55.620Z,94377.69
2022-11-16T02:19:11.575Z,94378.47
2022-11-16T02:20:40.912Z,94381.25
2022-11-16T02:22:01.274Z,94372.13
2022-11-16T02:23:21.341Z,94374.69
2022-11-16T02:24:25.747Z,94376.59
2022-11-16T02:25:56.577Z,94391.22
2022-11-16T02:27:19.954Z,94387.16
2022-11-16T02:28:31.075Z,94376.41
2022-11-16T02:29:37.997Z,94380.69
2022-11-16T02:30:44.318Z,94377.69
2022-11-16T02:32:04.721Z,94378.78
2022-11-16T02:33:17.397Z,94381.38
2022-11-16T02:34:21.844Z,94380.28
2022-11-16T02:35:46.802Z,94367.25
2022-11-16T02:36:54.346Z,94380.81
2022-11-16T02:38:27.731Z,94371.50
2022-11-16T02:39:31.988Z,94372.88
2022-11-16T02:40:36.149Z,94374.16
2022-11-16T02:41:41.563Z,94376.22
2022-11-16T02:42:52.948Z,94371.69
2022-11-16T02:44:01.772Z,94373.22
2022-11-16T02:45:06.365Z,94371.16
2022-11-16T02:46:13.462Z,94373.22
2022-11-16T02:47:23.054Z,94366.69
2022-11-16T02:48:31.329Z,94368.91
2022-11-16T02:49:41.293Z,94362.94
2022-11-16T02:50:44.058Z,94367.97
2022-11-16T02:51:50.285Z,94365.72
2022-11-16T02:52:51.773Z,94371.69
2022-11-16T02:54:13.050Z,94371.31
2022-11-16T02:55:15.043Z,94363.53
2022-11-16T02:56:16.766Z,94365.06
2022-11-16T02:57:37.624Z,94362.06
2022-11-16T02:58:39.290Z,94369.13
2022-11-16T02:59:51.607Z,94368.72
2022-11-16T03:01:19.175Z,94373.56
2022-11-16T03:02:26.153Z,94361.28
2022-11-16T03:03:33.378Z,94353.47
2022-11-16T03:04:43.642Z,94360.38
2022-11-16T03:06:01.233Z,94362.41
2022-11-16T03:07:05.596Z,94360.00
2022-11-16T03:08:20.371Z,94359.41
2022-11-16T03:09:27.918Z,94360.53
2022-11-16T03:10:49.249Z,94360.53
2022-11-16T03:12:01.034Z,94349.94
2022-11-16T03:13:03.809Z,94352.00
2022-11-16T03:14:14.527Z,94349.00
2022-11-16T03:15:16.538Z,94353.47
2022-11-16T03:16:25.559Z,94347.72
2022-11-16T03:17:53.286Z,94347.34
2022-11-16T03:18:58.482Z,94345.31
2022-11-16T03:20:09.581Z,94349.75
2022-11-16T03:21:37.527Z,94353.09
2022-11-16T03:22:45.832Z,94346.59
2022-11-16T03:23:47.656Z,94351.25
2022-11-16T03:24:49.223Z,94347.50
2022-11-16T03:25:55.391Z,94355.88
2022-11-16T03:27:14.899Z,94351.03
2022-11-16T03:28:56.879Z,94343.25
2022-11-16T03:30:07.867Z,94344.16
2022-11-16T03:31:17.861Z,94340.09
2022-11-16T03:32:25.176Z,94344.53
2022-11-16T03:33:38.578Z,94346.72
2022-11-16T03:34:43.687Z,94338.53
2022-11-16T03:35:56.975Z,94348.22
2022-11-16T03:37:00.462Z,94349.50
2022-11-16T03:38:04.977Z,94350.81
2022-11-16T03:39:15.671Z,94345.25
2022-11-16T03:40:19.207Z,94355.09
2022-11-16T03:41:22.864Z,94346.72
2022-11-16T03:42:27.015Z,94350.06
2022-11-16T03:43:30.466Z,94347.47
2022-11-16T03:44:32.286Z,94350.25
2022-11-16T03:45:35.630Z,94356.56
2022-11-16T03:46:37.404Z,94351.56
2022-11-16T03:47:40.509Z,94356.41
2022-11-16T03:48:42.648Z,94351.56
2022-11-16T03:49:46.018Z,94353.59
2022-11-16T03:50:47.752Z,94348.03
2022-11-16T03:51:50.216Z,94352.31
2022-11-16T03:52:51.938Z,94350.06
2022-11-16T03:53:53.805Z,94345.25
2022-11-16T03:54:55.357Z,94343.19
2022-11-16T03:55:56.976Z,94345.44
2022-11-16T03:56:58.528Z,94351.22
2022-11-16T03:58:00.141Z,94346.38
2022-11-16T03:59:01.660Z,94349.91
2022-11-16T04:00:04.741Z,94343.59
2022-11-16T04:01:06.425Z,94340.06
2022-11-16T04:02:08.015Z,94341.34
2022-11-16T04:03:09.511Z,94334.28
2022-11-16T04:04:31.179Z,94339.31
2022-11-16T04:05:51.239Z,94330.41
2022-11-16T04:07:11.064Z,94330.41
2022-11-16T04:08:36.723Z,94332.78
2022-11-16T04:09:56.824Z,94335.22
2022-11-16T04:11:16.983Z,94330.19
2022-11-16T04:12:36.629Z,94324.44
2022-11-16T04:13:56.747Z,94320.34
2022-11-16T04:15:16.854Z,94317.53
2022-11-16T04:16:37.243Z,94316.81
2022-11-16T04:17:57.119Z,94313.28
2022-11-16T04:19:16.919Z,94314.75
2022-11-16T04:20:37.258Z,94308.44
2022-11-16T04:22:01.667Z,94304.69
2022-11-16T04:23:29.212Z,94315.84
2022-11-16T04:24:34.633Z,94314.56
2022-11-16T04:25:39.282Z,94311.78
2022-11-16T04:27:03.875Z,94315.84
2022-11-16T04:28:16.198Z,94306.22
2022-11-16T04:29:17.947Z,94295.06
2022-11-16T04:30:19.617Z,94308.78
2022-11-16T04:31:41.403Z,94309.53
2022-11-16T04:33:01.237Z,94306.97
2022-11-16T04:34:22.078Z,94306.22
2022-11-16T04:35:41.758Z,94309.53
2022-11-16T04:37:01.577Z,94299.13
2022-11-16T04:38:03.155Z,94312.53
2022-11-16T04:39:05.446Z,94301.91
2022-11-16T04:40:07.780Z,94297.63
2022-11-16T04:41:29.246Z,94310.84
2022-11-16T04:42:30.892Z,94306.22
2022-11-16T04:43:32.444Z,94311.78
2022-11-16T04:44:55.335Z,94306.75
2022-11-16T04:46:15.177Z,94306.22
2022-11-16T04:47:16.708Z,94306.00
2022-11-16T04:48:19.376Z,94311.78
2022-11-16T04:49:20.984Z,94306.22
2022-11-16T04:50:22.540Z,94307.50
2022-11-16T04:51:24.081Z,94306.75
2022-11-16T04:52:25.659Z,94306.75
2022-11-16T04:53:28.031Z,94310.28
2022-11-16T04:54:29.545Z,94306.22
2022-11-16T04:55:31.090Z,94303.22
2022-11-16T04:56:32.673Z,94303.22
2022-11-16T04:57:34.213Z,94310.28
2022-11-16T04:58:35.954Z,94310.28
2022-11-16T04:59:37.795Z,94312.88
2022-11-16T05:00:39.305Z,94304.53
2022-11-16T05:01:59.386Z,94308.78
2022-11-16T05:03:01.820Z,94311.41
2022-11-16T05:04:03.689Z,94306.91
2022-11-16T05:05:05.668Z,94304.31
2022-11-16T05:06:07.426Z,94303.03
2022-11-16T05:07:12.124Z,94309.16
2022-11-16T05:08:13.777Z,94300.25
2022-11-16T05:09:15.691Z,94302.25
2022-11-16T05:10:17.548Z,94300.25
2022-11-16T05:11:19.058Z,94303.78
2022-11-16T05:12:23.902Z,94301.72
2022-11-16T05:13:25.454Z,94306.22
2022-11-16T05:14:26.973Z,94295.06
2022-11-16T05:15:28.517Z,94288.75
2022-11-16T05:16:30.772Z,94290.59
2022-11-16T05:17:33.110Z,94281.66
2022-11-16T05:18:34.852Z,94290.03
2022-11-16T05:19:55.209Z,94293.53
2022-11-16T05:21:02.809Z,94292.06
2022-11-16T05:22:04.372Z,94292.06
2022-11-16T05:23:07.383Z,94292.06
2022-11-16T05:24:27.661Z,94286.50
2022-11-16T05:25:33.798Z,94296.91
2022-11-16T05:26:42.938Z,94288.75
2022-11-16T05:27:44.568Z,94286.50
2022-11-16T05:28:48.441Z,94287.78
2022-11-16T05:29:52.521Z,94299.91
2022-11-16T05:30:54.091Z,94294.31
2022-11-16T05:31:55.773Z,94295.06
2022-11-16T05:32:57.304Z,94288.75
2022-11-16T05:33:58.831Z,94295.06
2022-11-16T05:35:00.450Z,94299.13
2022-11-16T05:36:01.976Z,94303.97
2022-11-16T05:37:03.564Z,94292.81
2022-11-16T05:38:05.076Z,94293.53
2022-11-16T05:39:06.889Z,94292.28
2022-11-16T05:40:08.948Z,94289.50
2022-11-16T05:41:10.510Z,94288.75
2022-11-16T05:42:12.097Z,94293.00
2022-11-16T05:43:13.678Z,94292.06
2022-11-16T05:44:15.873Z,94292.28
2022-11-16T05:45:21.060Z,94292.28
2022-11-16T05:46:24.049Z,94299.34
2022-11-16T05:47:25.609Z,94288.75
2022-11-16T05:48:27.150Z,94296.34
2022-11-16T05:49:28.799Z,94281.13
2022-11-16T05:50:30.379Z,94289.50
2022-11-16T05:51:31.896Z,94294.31
2022-11-16T05:52:33.398Z,94293.75
2022-11-16T05:53:34.965Z,94292.06
2022-11-16T05:54:36.508Z,94295.06
2022-11-16T05:55:38.064Z,94292.28
2022-11-16T05:56:39.722Z,94293.53
2022-11-16T05:57:41.306Z,94296.34
2022-11-16T05:58:43.734Z,94291.53
2022-11-16T05:59:45.278Z,94294.84
2022-11-16T06:00:47.224Z,94295.06
2022-11-16T06:01:49.357Z,94287.44
2022-11-16T06:02:50.924Z,94296.53
2022-11-16T06:03:53.087Z,94299.91
2022-11-16T06:04:54.648Z,94296.53
2022-11-16T06:05:57.121Z,94293.00
2022-11-16T06:06:58.674Z,94291.31
2022-11-16T06:08:00.267Z,94301.72
2022-11-16T06:09:02.573Z,94299.13
2022-11-16T06:10:04.417Z,94299.91
2022-11-16T06:11:08.730Z,94292.06
2022-11-16T06:12:11.864Z,94300.63
2022-11-16T06:13:13.407Z,94294.31
2022-11-16T06:14:14.932Z,94303.44
2022-11-16T06:15:16.582Z,94301.91
2022-11-16T06:16:18.272Z,94303.44
2022-11-16T06:17:19.778Z,94300.63
2022-11-16T06:18:21.374Z,94295.81
2022-11-16T06:19:24.399Z,94302.69
2022-11-16T06:20:28.520Z,94298.03
2022-11-16T06:21:30.184Z,94306.41
2022-11-16T06:22:31.791Z,94304.91
2022-11-16T06:23:34.024Z,94302.13
2022-11-16T06:24:35.559Z,94294.31
2022-11-16T06:25:38.829Z,94296.53
2022-11-16T06:26:40.596Z,94304.69
2022-11-16T06:27:42.134Z,94297.63
2022-11-16T06:28:43.740Z,94292.28
2022-11-16T06:29:45.368Z,94297.63
2022-11-16T06:30:48.189Z,94296.91
2022-11-16T06:31:49.847Z,94296.16
2022-11-16T06:32:51.907Z,94287.97
2022-11-16T06:33:53.405Z,94297.63
2022-11-16T06:34:55.389Z,94293.53
2022-11-16T06:35:56.963Z,94293.53
2022-11-16T06:36:58.609Z,94297.84
2022-11-16T06:38:00.143Z,94296.53
2022-11-16T06:39:01.780Z,94301.03
2022-11-16T06:40:03.741Z,94301.03
2022-11-16T06:41:05.483Z,94296.94
2022-11-16T06:42:07.177Z,94294.34
2022-11-16T06:43:08.697Z,94290.06
2022-11-16T06:44:10.289Z,94297.69
2022-11-16T06:45:11.920Z,94294.34
2022-11-16T06:46:13.518Z,94291.56
2022-11-16T06:47:15.230Z,94290.25
2022-11-16T06:48:17.763Z,94295.84
2022-11-16T06:49:19.365Z,94290.44
2022-11-16T06:50:20.951Z,94292.50
2022-11-16T06:51:22.446Z,94291.75
2022-11-16T06:52:23.917Z,94284.69
2022-11-16T06:53:29.151Z,94290.25
2022-11-16T06:54:31.175Z,94294.75
2022-11-16T06:55:32.722Z,94287.88
2022-11-16T06:56:35.428Z,94287.88
2022-11-16T06:57:36.960Z,94290.44
2022-11-16T06:58:40.703Z,94298.81
2022-11-16T06:59:44.107Z,94297.72
2022-11-16T07:00:45.701Z,94291.41
2022-11-16T07:01:47.268Z,94293.63
2022-11-16T07:02:48.862Z,94293.63
2022-11-16T07:03:50.403Z,94289.56
2022-11-16T07:04:51.926Z,94293.63
2022-11-16T07:05:53.510Z,94280.97
2022-11-16T07:06:55.072Z,94293.63
2022-11-16T07:07:56.864Z,94289.34
2022-11-16T07:08:58.388Z,94294.38
2022-11-16T07:09:59.965Z,94288.03
2022-11-16T07:11:05.965Z,94289.34
2022-11-16T07:12:07.505Z,94288.78
2022-11-16T07:13:09.115Z,94286.22
2022-11-16T07:14:11.845Z,94285.47
2022-11-16T07:15:13.411Z,94283.97
2022-11-16T07:16:15.183Z,94292.56
2022-11-16T07:17:16.750Z,94293.28
2022-11-16T07:18:18.318Z,94282.88
2022-11-16T07:19:19.865Z,94289.97
2022-11-16T07:20:21.446Z,94285.13
2022-11-16T07:21:22.972Z,94284.03
2022-11-16T07:22:24.527Z,94285.88
2022-11-16T07:23:26.060Z,94286.63
2022-11-16T07:24:27.566Z,94285.88
2022-11-16T07:25:29.564Z,94280.31
2022-11-16T07:26:34.565Z,94284.41
2022-11-16T07:27:36.173Z,94276.94
2022-11-16T07:28:39.972Z,94275.47
2022-11-16T07:29:44.977Z,94280.47
2022-11-16T07:30:46.863Z,94287.56
2022-11-16T07:31:48.445Z,94281.44
2022-11-16T07:32:49.974Z,94272.13
2022-11-16T07:33:52.137Z,94283.28
2022-11-16T07:34:53.689Z,94272.13
2022-11-16T07:35:55.692Z,94276.94
2022-11-16T07:36:57.222Z,94277.69
2022-11-16T07:37:58.791Z,94276.59
2022-11-16T07:39:00.407Z,94275.13
2022-11-16T07:40:02.275Z,94273.81
2022-11-16T07:41:09.648Z,94284.44
2022-11-16T07:42:12.322Z,94276.81
2022-11-16T07:43:14.040Z,94274.41
2022-11-16T07:44:16.064Z,94272.91
2022-11-16T07:45:17.569Z,94278.50
2022-11-16T07:46:46.047Z,94274.41
2022-11-16T07:47:42.886Z,94266.22
2022-11-16T07:48:44.970Z,94269.75
2022-11-16T07:49:48.793Z,94277.19
2022-11-16T07:50:50.354Z,94273.09
2022-11-16T07:51:51.914Z,94269.34
2022-11-16T07:52:55.513Z,94263.25
2022-11-16T07:53:57.044Z,94263.25
2022-11-16T07:54:58.676Z,94275.13
2022-11-16T07:56:00.780Z,94264.72
2022-11-16T07:57:02.752Z,94269.00
2022-11-16T07:58:04.297Z,94269.00
2022-11-16T07:59:06.099Z,94264.72
2022-11-16T08:00:08.446Z,94258.19
2022-11-16T08:01:13.145Z,94266.03
2022-11-16T08:02:14.722Z,94261.75
2022-11-16T08:03:20.506Z,94264.72
2022-11-16T08:04:26.059Z,94263.63
2022-11-16T08:05:28.442Z,94261.38
2022-11-16T08:06:31.601Z,94264.94
2022-11-16T08:07:35.741Z,94260.63
2022-11-16T08:08:37.499Z,94256.34
2022-11-16T08:09:39.492Z,94256.34
2022-11-16T08:10:41.095Z,94253.56
2022-11-16T08:11:42.650Z,94256.34
2022-11-16T08:12:44.212Z,94251.53
2022-11-16T08:13:46.285Z,94251.72
2022-11-16T08:14:47.870Z,94255.06
2022-11-16T08:15:49.391Z,94248.72
2022-11-16T08:16:50.889Z,94251.34
2022-11-16T08:17:52.401Z,94241.66
2022-11-16T08:18:54.085Z,94249.28
2022-11-16T08:19:55.595Z,94244.25
2022-11-16T08:21:01.757Z,94239.06
2022-11-16T08:22:04.085Z,94233.47
2022-11-16T08:23:05.892Z,94229.94
2022-11-16T08:24:07.848Z,94236.28
2022-11-16T08:25:09.743Z,94234.97
2022-11-16T08:26:16.669Z,94242.03
2022-11-16T08:27:18.273Z,94238.13
2022-11-16T08:28:19.779Z,94228.28
2022-11-16T08:29:21.306Z,94236.66
2022-11-16T08:30:22.870Z,94231.25
2022-11-16T08:31:27.062Z,94231.47
2022-11-16T08:32:29.804Z,94231.63
2022-11-16T08:33:31.349Z,94233.13
2022-11-16T08:34:34.100Z,94233.69
2022-11-16T08:35:36.352Z,94229.59
2022-11-16T08:51:17.586Z,94226.41
2022-11-16T08:52:20.344Z,94224.06
2022-11-16T08:53:21.858Z,94226.31
2022-11-16T08:54:23.405Z,94227.88
2022-11-16T08:55:25.852Z,94225.66
2022-11-16T08:56:27.622Z,94221.94
2022-11-16T08:57:30.015Z,94220.31
2022-11-16T08:58:31.944Z,94219.00
2022-11-16T08:59:33.699Z,94234.63
2022-11-16T09:00:35.825Z,94221.44
2022-11-16T09:01:37.428Z,94226.25
2022-11-16T09:02:38.994Z,94219.38
2022-11-16T09:03:41.525Z,94225.69
2022-11-16T09:04:43.828Z,94216.75
2022-11-16T09:05:46.801Z,94214.19
2022-11-16T09:06:48.412Z,94218.28
2022-11-16T09:07:50.016Z,94221.06
2022-11-16T09:08:51.968Z,94223.84
2022-11-16T09:09:53.491Z,94211.19
2022-11-16T09:10:55.083Z,94216.75
2022-11-16T09:13:15.644Z,94215.28
2022-11-16T09:14:17.172Z,94216.03
2022-11-16T09:15:19.406Z,94211.19
2022-11-16T09:16:21.975Z,94206.91
2022-11-16T09:17:23.520Z,94205.44
2022-11-16T09:18:25.770Z,94208.97
2022-11-16T09:19:27.392Z,94205.44
2022-11-16T09:20:29.326Z,94197.06
2022-11-16T09:21:31.000Z,94197.06
2022-11-16T09:22:32.735Z,94191.84
2022-11-16T09:23:34.349Z,94185.34
2022-11-16T09:24:35.925Z,94192.44
2022-11-16T09:25:37.448Z,94183.50
2022-11-16T09:26:38.970Z,94173.63
2022-11-16T09:27:40.485Z,94175.88
2022-11-16T09:28:42.489Z,94176.59
2022-11-16T09:29:44.031Z,94172.53
2022-11-16T09:30:47.886Z,94174.00
2022-11-16T09:31:49.434Z,94179.59
2022-11-16T09:32:50.982Z,94166.94
2022-11-16T09:33:52.773Z,94154.28
2022-11-16T09:34:54.403Z,94164.16
2022-11-16T09:35:56.588Z,94165.44
2022-11-16T09:36:58.162Z,94150.97
2022-11-16T09:37:59.732Z,94149.44
2022-11-16T09:40:24.082Z,94147.81
2022-11-16T09:41:37.274Z,94150.97
2022-11-16T09:43:06.305Z,94145.75
2022-11-16T09:44:44.245Z,94148.34
2022-11-16T09:45:56.767Z,94142.75
2022-11-16T09:47:00.994Z,94144.63
2022-11-16T09:48:06.114Z,94150.22
2022-11-16T09:49:21.381Z,94148.72
2022-11-16T09:50:42.566Z,94142.38
2022-11-16T09:53:21.301Z,94141.28
2022-11-16T09:54:38.708Z,94133.28
2022-11-16T09:55:57.251Z,94130.50
2022-11-16T09:57:05.666Z,94128.63
2022-11-16T09:58:19.996Z,94133.84
2022-11-16T09:59:25.294Z,94122.84
2022-11-16T10:00:29.163Z,94121.56
2022-11-16T10:01:50.177Z,94123.44
2022-11-16T10:03:11.033Z,94119.69
2022-11-16T10:04:12.561Z,94115.59
2022-11-16T10:05:20.565Z,94108.53
2022-11-16T10:07:01.795Z,94116.34
2022-11-16T10:08:36.004Z,94110.03
2022-11-16T10:09:38.184Z,94111.91
2022-11-16T10:10:50.951Z,94099.59
2022-11-16T10:11:59.059Z,94094.78
2022-11-16T10:13:18.955Z,94094.78
2022-11-16T10:14:39.082Z,94094.44
2022-11-16T10:15:52.797Z,94090.69
2022-11-16T10:17:30.529Z,94086.59
2022-11-16T10:19:10.140Z,94086.44
2022-11-16T10:20:33.816Z,94089.00
2022-11-16T10:21:50.299Z,94079.34
2022-11-16T10:23:03.161Z,94077.13
2022-11-16T10:24:13.672Z,94077.84
2022-11-16T10:25:20.502Z,94076.91
2022-11-16T10:26:53.801Z,94075.06
2022-11-16T10:28:40.148Z,94075.06
2022-11-16T10:30:03.329Z,94066.88
2022-11-16T10:31:36.101Z,94053.84
2022-11-16T10:32:47.524Z,94057.59
2022-11-16T10:33:51.952Z,94060.75
2022-11-16T10:35:11.833Z,94055.38
2022-11-16T10:36:15.098Z,94057.22
2022-11-16T10:37:16.961Z,94056.47
2022-11-16T10:38:24.123Z,94052.00
2022-11-16T10:39:27.489Z,94054.97
2022-11-16T10:40:39.848Z,94060.19
2022-11-16T10:41:45.369Z,94063.16
2022-11-16T10:42:54.822Z,94053.47
2022-11-16T10:43:59.067Z,94054.97
2022-11-16T10:45:17.840Z,94050.53
2022-11-16T10:46:44.252Z,94047.16
2022-11-16T10:48:14.899Z,94053.84
2022-11-16T10:49:25.356Z,94055.31
2022-11-16T10:50:32.855Z,94052.38
2022-11-16T10:51:34.486Z,94045.66
2022-11-16T10:52:35.986Z,94049.75
2022-11-16T10:53:40.478Z,94045.31
2022-11-16T10:54:44.480Z,94041.38
2022-11-16T10:55:50.253Z,94048.47
2022-11-16T10:57:05.857Z,94047.53
2022-11-16T10:58:07.450Z,94045.84
2022-11-16T10:59:10.030Z,94042.16
2022-11-16T11:00:12.903Z,94030.41
2022-11-16T11:01:28.902Z,94025.94
2022-11-16T11:02:36.456Z,94024.81
2022-11-16T11:03:38.116Z,94033.00
2022-11-16T11:04:39.734Z,94022.03
2022-11-16T11:05:59.926Z,94016.25
2022-11-16T11:07:22.322Z,94015.88
2022-11-16T11:08:32.790Z,94014.03
2022-11-16T11:09:38.856Z,94021.09
2022-11-16T11:10:42.005Z,94021.09
2022-11-16T11:12:19.399Z,94017.78
2022-11-16T11:13:26.784Z,94009.56
2022-11-16T11:14:28.300Z,94010.66
2022-11-16T11:15:29.891Z,94011.44
2022-11-16T11:16:31.534Z,94012.91
2022-11-16T11:17:35.542Z,94005.84
2022-11-16T11:18:37.099Z,94008.66
2022-11-16T11:19:38.662Z,94000.28
2022-11-16T11:20:45.049Z,93994.69
2022-11-16T11:21:47.482Z,94003.22
2022-11-16T11:22:56.300Z,93992.06
2022-11-16T11:24:29.756Z,93994.69
2022-11-16T11:25:41.355Z,93985.75
2022-11-16T11:26:43.575Z,93992.44
2022-11-16T11:27:45.171Z,93985.38
2022-11-16T11:28:49.246Z,93982.38
2022-11-16T11:29:54.179Z,93985.38
2022-11-16T11:31:03.991Z,93984.06
2022-11-16T11:32:12.845Z,93977.16
2022-11-16T11:33:15.946Z,93988.31
2022-11-16T11:34:31.311Z,93979.22
2022-11-16T11:35:32.958Z,93979.78
2022-11-16T11:36:40.457Z,93973.47
2022-11-16T11:37:42.275Z,93974.56
2022-11-16T11:40:18.392Z,93968.63
2022-11-16T11:41:20.518Z,93965.25
2022-11-16T11:42:23.425Z,93966.00
2022-11-16T11:43:25.899Z,93958.19
2022-11-16T11:44:51.978Z,93973.66
2022-11-16T11:46:56.090Z,93961.94
2022-11-16T11:48:13.709Z,93965.47
2022-11-16T11:49:30.455Z,93958.94
2022-11-16T11:50:52.889Z,93957.06
2022-11-16T11:51:59.080Z,93958.94
2022-11-16T11:53:25.507Z,93953.75
2022-11-16T11:54:31.335Z,93949.09
2022-11-16T11:55:33.694Z,93944.97
2022-11-16T11:56:35.223Z,93945.56
2022-11-16T11:57:41.405Z,93946.28
2022-11-16T11:58:43.688Z,93942.94
2022-11-16T11:59:45.255Z,93943.66
2022-11-16T12:01:25.284Z,93932.16
2022-11-16T12:02:33.493Z,93935.13
2022-11-16T12:03:50.109Z,93932.50
2022-11-16T12:05:12.986Z,93937.91
2022-11-16T12:06:38.743Z,93937.72
2022-11-16T12:07:50.273Z,93935.88
2022-11-16T12:09:10.201Z,93932.50
2022-11-16T12:10:36.540Z,93937.72
2022-11-16T12:12:20.137Z,93935.88
2022-11-16T12:13:58.958Z,93933.81
2022-11-16T12:15:26.986Z,93942.53
2022-11-16T12:16:46.899Z,93936.22
2022-11-16T12:17:54.526Z,93932.50
2022-11-16T12:19:30.337Z,93925.09
2022-11-16T12:21:19.259Z,93926.94
2022-11-16T12:22:38.896Z,93917.25
2022-11-16T12:24:17.814Z,93922.84
2022-11-16T12:25:31.254Z,93914.28
2022-11-16T12:26:44.917Z,93912.81
2022-11-16T12:28:05.305Z,93915.41
2022-11-16T12:29:45.212Z,93913.94
2022-11-16T12:31:20.942Z,93912.81
2022-11-16T12:32:45.673Z,93901.81
2022-11-16T12:34:05.060Z,93905.75
2022-11-16T12:35:44.934Z,93904.25
2022-11-16T12:36:59.797Z,93907.59
2022-11-16T12:38:26.358Z,93895.69
2022-11-16T12:39:37.875Z,93896.56
2022-11-16T12:40:50.208Z,93890.84
2022-11-16T12:42:00.660Z,93888.63
2022-11-16T12:43:23.694Z,93892.69
2022-11-16T12:44:33.629Z,93891.56
2022-11-16T12:45:50.330Z,93893.78
2022-11-16T12:47:16.223Z,93896.56
2022-11-16T12:48:36.107Z,93891.19
2022-11-16T12:49:52.523Z,93891.19
2022-11-16T12:51:06.173Z,93887.06
2022-11-16T12:52:10.558Z,93881.69
2022-11-16T12:53:32.220Z,93884.13
2022-11-16T12:54:33.930Z,93878.16
2022-11-16T12:55:44.595Z,93884.88
2022-11-16T12:57:23.534Z,93879.84
2022-11-16T12:58:44.981Z,93881.69
2022-11-16T12:59:46.522Z,93882.44
2022-11-16T13:01:11.640Z,93882.25
2022-11-16T13:02:31.942Z,93869.59
2022-11-16T13:03:42.858Z,93870.69
2022-11-16T13:04:51.441Z,93874.78
2022-11-16T13:05:55.994Z,93874.78
2022-11-16T13:07:10.365Z,93880.59
2022-11-16T13:08:20.093Z,93877.59
2022-11-16T13:09:26.518Z,93867.00
2022-11-16T13:10:33.706Z,93873.31
2022-11-16T13:11:57.499Z,93874.44
2022-11-16T13:14:41.724Z,93868.47
2022-11-16T13:15:46.369Z,93874.97
2022-11-16T13:16:49.087Z,93876.47
2022-11-16T13:17:56.907Z,93869.94
2022-11-16T13:19:00.829Z,93867.34
2022-11-16T13:20:29.935Z,93867.72
2022-11-16T13:21:54.848Z,93868.47
2022-11-16T13:23:38.053Z,93869.59
2022-11-16T13:24:42.568Z,93863.22
2022-11-16T13:25:52.774Z,93869.22
2022-11-16T13:27:28.548Z,93871.84
2022-11-16T13:28:36.415Z,93862.69
2022-11-16T13:29:38.135Z,93856.56
2022-11-16T13:31:04.524Z,93864.97
2022-11-16T13:32:16.792Z,93860.28
2022-11-16T13:33:36.610Z,93849.13
2022-11-16T13:34:40.166Z,93854.31